sensor_id;sensor_type;location;lat;lon;timestamp;P1;durP1;ratioP1;P2;durP2;ratioP2
69253;SDS011;56364;41.816;12.448;2023-03-23T00:00:16;17.80;;;7.13;;
69253;SDS011;56364;41.816;12.448;2023-03-23T00:02:43;16.23;;;7.30;;
69253;SDS011;56364;41.816;12.448;2023-03-23T00:05:12;17.92;;;7.82;;
69253;SDS011;56364;41.816;12.448;2023-03-23T00:07:59;20.60;;;8.18;;
69253;SDS011;56364;41.816;12.448;2023-03-23T00:10:28;16.77;;;7.75;;
69253;SDS011;56364;41.816;12.448;2023-03-23T00:12:58;18.65;;;7.55;;
69253;SDS011;56364;41.816;12.448;2023-03-23T00:15:27;18.20;;;8.13;;
69253;SDS011;56364;41.816;12.448;2023-03-23T00:17:58;18.42;;;8.18;;
69253;SDS011;56364;41.816;12.448;2023-03-23T00:20:27;18.55;;;8.55;;
69253;SDS011;56364;41.816;12.448;2023-03-23T00:22:55;20.60;;;8.20;;
69253;SDS011;56364;41.816;12.448;2023-03-23T00:27:54;18.42;;;7.15;;
69253;SDS011;56364;41.816;12.448;2023-03-23T00:30:21;13.13;;;6.90;;
69253;SDS011;56364;41.816;12.448;2023-03-23T00:32:47;21.25;;;8.25;;
69253;SDS011;56364;41.816;12.448;2023-03-23T00:35:13;15.75;;;6.60;;
69253;SDS011;56364;41.816;12.448;2023-03-23T00:37:40;15.68;;;7.15;;
69253;SDS011;56364;41.816;12.448;2023-03-23T00:40:06;14.38;;;7.13;;
69253;SDS011;56364;41.816;12.448;2023-03-23T00:42:35;20.08;;;7.28;;
69253;SDS011;56364;41.816;12.448;2023-03-23T00:45:03;20.85;;;8.35;;
69253;SDS011;56364;41.816;12.448;2023-03-23T00:47:35;18.50;;;7.82;;
69253;SDS011;56364;41.816;12.448;2023-03-23T00:50:02;17.25;;;6.93;;
69253;SDS011;56364;41.816;12.448;2023-03-23T00:52:30;15.25;;;6.95;;
69253;SDS011;56364;41.816;12.448;2023-03-23T00:57:22;13.32;;;5.95;;
69253;SDS011;56364;41.816;12.448;2023-03-23T00:59:50;18.00;;;6.45;;
69253;SDS011;56364;41.816;12.448;2023-03-23T01:02:17;12.13;;;5.97;;
69253;SDS011;56364;41.816;12.448;2023-03-23T01:04:52;17.85;;;6.72;;
69253;SDS011;56364;41.816;12.448;2023-03-23T01:23:12;12.40;;;5.80;;
69253;SDS011;56364;41.816;12.448;2023-03-23T01:25:38;14.60;;;6.03;;
69253;SDS011;56364;41.816;12.448;2023-03-23T01:28:04;14.55;;;6.13;;
69253;SDS011;56364;41.816;12.448;2023-03-23T01:30:30;14.68;;;7.07;;
69253;SDS011;56364;41.816;12.448;2023-03-23T01:32:57;15.98;;;6.70;;
69253;SDS011;56364;41.816;12.448;2023-03-23T01:35:31;14.25;;;6.30;;
69253;SDS011;56364;41.816;12.448;2023-03-23T01:37:57;13.95;;;6.30;;
69253;SDS011;56364;41.816;12.448;2023-03-23T01:40:29;13.00;;;6.85;;
69253;SDS011;56364;41.816;12.448;2023-03-23T01:42:58;15.73;;;6.15;;
69253;SDS011;56364;41.816;12.448;2023-03-23T01:48:01;15.98;;;6.70;;
69253;SDS011;56364;41.816;12.448;2023-03-23T01:50:29;12.95;;;5.90;;
69253;SDS011;56364;41.816;12.448;2023-03-23T01:52:59;18.08;;;6.85;;
69253;SDS011;56364;41.816;12.448;2023-03-23T01:55:27;12.70;;;6.72;;
69253;SDS011;56364;41.816;12.448;2023-03-23T01:57:54;14.57;;;5.90;;
69253;SDS011;56364;41.816;12.448;2023-03-23T02:00:20;14.50;;;6.25;;
69253;SDS011;56364;41.816;12.448;2023-03-23T02:02:47;12.57;;;5.90;;
69253;SDS011;56364;41.816;12.448;2023-03-23T02:05:15;13.50;;;6.28;;
69253;SDS011;56364;41.816;12.448;2023-03-23T02:07:45;14.48;;;6.55;;
69253;SDS011;56364;41.816;12.448;2023-03-23T02:10:11;11.90;;;5.53;;
69253;SDS011;56364;41.816;12.448;2023-03-23T02:15:04;13.07;;;5.00;;
69253;SDS011;56364;41.816;12.448;2023-03-23T02:17:37;15.35;;;5.68;;
69253;SDS011;56364;41.816;12.448;2023-03-23T02:30:30;9.40;;;4.85;;
69253;SDS011;56364;41.816;12.448;2023-03-23T02:35:39;12.38;;;5.55;;
69253;SDS011;56364;41.816;12.448;2023-03-23T02:38:07;10.80;;;4.90;;
69253;SDS011;56364;41.816;12.448;2023-03-23T02:40:44;12.20;;;5.57;;
69253;SDS011;56364;41.816;12.448;2023-03-23T02:43:16;12.68;;;5.03;;
69253;SDS011;56364;41.816;12.448;2023-03-23T03:06:26;13.10;;;6.53;;
69253;SDS011;56364;41.816;12.448;2023-03-23T03:11:21;13.82;;;5.40;;
69253;SDS011;56364;41.816;12.448;2023-03-23T03:14:02;14.75;;;5.43;;
69253;SDS011;56364;41.816;12.448;2023-03-23T03:19:07;12.75;;;5.78;;
69253;SDS011;56364;41.816;12.448;2023-03-23T03:21:35;17.65;;;7.20;;
69253;SDS011;56364;41.816;12.448;2023-03-23T03:24:02;17.83;;;6.90;;
69253;SDS011;56364;41.816;12.448;2023-03-23T03:26:39;18.75;;;7.40;;
69253;SDS011;56364;41.816;12.448;2023-03-23T03:29:10;20.05;;;6.68;;
69253;SDS011;56364;41.816;12.448;2023-03-23T03:31:37;18.77;;;8.52;;
69253;SDS011;56364;41.816;12.448;2023-03-23T03:34:05;19.77;;;8.23;;
69253;SDS011;56364;41.816;12.448;2023-03-23T03:36:32;25.05;;;8.43;;
69253;SDS011;56364;41.816;12.448;2023-03-23T03:39:06;19.42;;;8.00;;
69253;SDS011;56364;41.816;12.448;2023-03-23T03:41:37;18.08;;;8.13;;
69253;SDS011;56364;41.816;12.448;2023-03-23T03:44:03;17.65;;;8.18;;
69253;SDS011;56364;41.816;12.448;2023-03-23T03:46:30;18.88;;;8.50;;
69253;SDS011;56364;41.816;12.448;2023-03-23T04:07:01;21.40;;;8.07;;
69253;SDS011;56364;41.816;12.448;2023-03-23T04:09:27;17.83;;;8.57;;
69253;SDS011;56364;41.816;12.448;2023-03-23T04:11:56;20.90;;;8.05;;
69253;SDS011;56364;41.816;12.448;2023-03-23T04:14:22;17.00;;;6.60;;
69253;SDS011;56364;41.816;12.448;2023-03-23T04:16:48;17.38;;;7.80;;
69253;SDS011;56364;41.816;12.448;2023-03-23T04:19:17;23.08;;;8.35;;
69253;SDS011;56364;41.816;12.448;2023-03-23T04:21:43;15.57;;;7.78;;
69253;SDS011;56364;41.816;12.448;2023-03-23T04:24:14;17.55;;;7.47;;
69253;SDS011;56364;41.816;12.448;2023-03-23T04:29:16;18.25;;;7.28;;
69253;SDS011;56364;41.816;12.448;2023-03-23T04:31:42;13.75;;;6.03;;
69253;SDS011;56364;41.816;12.448;2023-03-23T04:34:10;16.10;;;7.00;;
69253;SDS011;56364;41.816;12.448;2023-03-23T04:36:38;13.57;;;6.35;;
69253;SDS011;56364;41.816;12.448;2023-03-23T04:39:05;15.40;;;7.93;;
69253;SDS011;56364;41.816;12.448;2023-03-23T04:41:35;12.45;;;6.38;;
69253;SDS011;56364;41.816;12.448;2023-03-23T04:46:29;12.63;;;5.78;;
69253;SDS011;56364;41.816;12.448;2023-03-23T04:48:55;12.60;;;6.00;;
69253;SDS011;56364;41.816;12.448;2023-03-23T04:51:24;16.73;;;7.15;;
69253;SDS011;56364;41.816;12.448;2023-03-23T04:53:52;18.27;;;8.10;;
69253;SDS011;56364;41.816;12.448;2023-03-23T04:56:19;19.40;;;7.25;;
69253;SDS011;56364;41.816;12.448;2023-03-23T04:58:45;15.68;;;7.07;;
69253;SDS011;56364;41.816;12.448;2023-03-23T05:01:12;13.48;;;7.10;;
69253;SDS011;56364;41.816;12.448;2023-03-23T05:03:40;15.02;;;6.93;;
69253;SDS011;56364;41.816;12.448;2023-03-23T05:08:37;15.77;;;6.35;;
69253;SDS011;56364;41.816;12.448;2023-03-23T05:11:05;13.50;;;5.82;;
69253;SDS011;56364;41.816;12.448;2023-03-23T05:13:32;16.13;;;6.00;;
69253;SDS011;56364;41.816;12.448;2023-03-23T05:16:02;10.27;;;5.68;;
69253;SDS011;56364;41.816;12.448;2023-03-23T05:18:29;15.85;;;5.90;;
69253;SDS011;56364;41.816;12.448;2023-03-23T05:20:59;14.55;;;5.75;;
69253;SDS011;56364;41.816;12.448;2023-03-23T05:25:58;16.73;;;6.28;;
69253;SDS011;56364;41.816;12.448;2023-03-23T05:28:27;15.02;;;5.60;;
69253;SDS011;56364;41.816;12.448;2023-03-23T05:30:55;17.33;;;7.05;;
69253;SDS011;56364;41.816;12.448;2023-03-23T05:33:21;14.48;;;6.88;;
69253;SDS011;56364;41.816;12.448;2023-03-23T05:38:14;14.50;;;5.30;;
69253;SDS011;56364;41.816;12.448;2023-03-23T05:40:51;18.02;;;7.45;;
69253;SDS011;56364;41.816;12.448;2023-03-23T05:43:17;17.08;;;7.30;;
69253;SDS011;56364;41.816;12.448;2023-03-23T05:45:43;14.40;;;6.15;;
69253;SDS011;56364;41.816;12.448;2023-03-23T05:48:10;15.13;;;7.28;;
69253;SDS011;56364;41.816;12.448;2023-03-23T05:50:36;19.90;;;7.15;;
69253;SDS011;56364;41.816;12.448;2023-03-23T05:53:02;14.30;;;5.93;;
69253;SDS011;56364;41.816;12.448;2023-03-23T05:55:48;13.32;;;5.95;;
69253;SDS011;56364;41.816;12.448;2023-03-23T05:58:14;15.68;;;6.32;;
69253;SDS011;56364;41.816;12.448;2023-03-23T06:00:40;14.43;;;6.75;;
69253;SDS011;56364;41.816;12.448;2023-03-23T06:03:06;16.80;;;7.95;;
69253;SDS011;56364;41.816;12.448;2023-03-23T06:05:33;14.27;;;7.28;;
69253;SDS011;56364;41.816;12.448;2023-03-23T06:08:02;16.13;;;7.20;;
69253;SDS011;56364;41.816;12.448;2023-03-23T06:10:29;27.00;;;7.47;;
69253;SDS011;56364;41.816;12.448;2023-03-23T06:12:57;19.05;;;7.45;;
69253;SDS011;56364;41.816;12.448;2023-03-23T06:15:23;18.08;;;8.40;;
69253;SDS011;56364;41.816;12.448;2023-03-23T06:17:52;17.33;;;7.07;;
69253;SDS011;56364;41.816;12.448;2023-03-23T06:20:21;14.35;;;6.60;;
69253;SDS011;56364;41.816;12.448;2023-03-23T06:22:49;15.73;;;7.55;;
69253;SDS011;56364;41.816;12.448;2023-03-23T06:25:17;17.13;;;7.50;;
69253;SDS011;56364;41.816;12.448;2023-03-23T06:27:43;14.15;;;6.60;;
69253;SDS011;56364;41.816;12.448;2023-03-23T06:30:11;20.02;;;8.10;;
69253;SDS011;56364;41.816;12.448;2023-03-23T06:32:37;16.63;;;7.57;;
69253;SDS011;56364;41.816;12.448;2023-03-23T06:35:04;17.58;;;8.63;;
69253;SDS011;56364;41.816;12.448;2023-03-23T06:37:31;21.02;;;9.25;;
69253;SDS011;56364;41.816;12.448;2023-03-23T06:39:58;22.27;;;10.27;;
69253;SDS011;56364;41.816;12.448;2023-03-23T06:42:24;20.27;;;8.55;;
69253;SDS011;56364;41.816;12.448;2023-03-23T06:44:50;24.40;;;9.13;;
69253;SDS011;56364;41.816;12.448;2023-03-23T06:47:16;18.85;;;8.68;;
69253;SDS011;56364;41.816;12.448;2023-03-23T06:49:42;23.20;;;9.90;;
69253;SDS011;56364;41.816;12.448;2023-03-23T06:54:35;18.80;;;9.05;;
69253;SDS011;56364;41.816;12.448;2023-03-23T06:59:28;21.33;;;9.52;;
69253;SDS011;56364;41.816;12.448;2023-03-23T07:01:54;21.70;;;10.18;;
69253;SDS011;56364;41.816;12.448;2023-03-23T07:04:21;20.40;;;10.40;;
69253;SDS011;56364;41.816;12.448;2023-03-23T07:06:50;25.05;;;10.57;;
69253;SDS011;56364;41.816;12.448;2023-03-23T07:09:21;23.00;;;11.23;;
69253;SDS011;56364;41.816;12.448;2023-03-23T07:11:49;31.92;;;11.63;;
69253;SDS011;56364;41.816;12.448;2023-03-23T07:14:20;27.08;;;12.10;;
69253;SDS011;56364;41.816;12.448;2023-03-23T07:16:47;25.27;;;10.52;;
69253;SDS011;56364;41.816;12.448;2023-03-23T07:21:40;20.50;;;10.10;;
69253;SDS011;56364;41.816;12.448;2023-03-23T07:29:23;23.38;;;9.93;;
69253;SDS011;56364;41.816;12.448;2023-03-23T07:31:49;26.95;;;9.88;;
69253;SDS011;56364;41.816;12.448;2023-03-23T07:34:16;23.98;;;10.05;;
69253;SDS011;56364;41.816;12.448;2023-03-23T07:36:44;23.00;;;9.50;;
69253;SDS011;56364;41.816;12.448;2023-03-23T07:39:11;25.25;;;9.32;;
69253;SDS011;56364;41.816;12.448;2023-03-23T07:41:37;24.08;;;8.82;;
69253;SDS011;56364;41.816;12.448;2023-03-23T07:46:29;21.77;;;8.43;;
69253;SDS011;56364;41.816;12.448;2023-03-23T07:49:00;19.52;;;8.25;;
69253;SDS011;56364;41.816;12.448;2023-03-23T07:51:29;16.33;;;7.90;;
69253;SDS011;56364;41.816;12.448;2023-03-23T07:56:22;15.85;;;6.90;;
69253;SDS011;56364;41.816;12.448;2023-03-23T07:58:48;19.50;;;8.27;;
69253;SDS011;56364;41.816;12.448;2023-03-23T08:01:14;16.23;;;7.20;;
69253;SDS011;56364;41.816;12.448;2023-03-23T08:08:48;24.38;;;9.23;;
69253;SDS011;56364;41.816;12.448;2023-03-23T08:11:16;21.52;;;10.57;;
69253;SDS011;56364;41.816;12.448;2023-03-23T08:13:42;26.67;;;12.07;;
69253;SDS011;56364;41.816;12.448;2023-03-23T08:16:09;27.55;;;12.15;;
69253;SDS011;56364;41.816;12.448;2023-03-23T08:18:36;30.05;;;11.10;;
69253;SDS011;56364;41.816;12.448;2023-03-23T08:21:06;21.33;;;10.25;;
69253;SDS011;56364;41.816;12.448;2023-03-23T08:23:34;23.42;;;10.38;;
69253;SDS011;56364;41.816;12.448;2023-03-23T08:26:04;26.63;;;12.20;;
69253;SDS011;56364;41.816;12.448;2023-03-23T08:28:37;22.08;;;10.27;;
69253;SDS011;56364;41.816;12.448;2023-03-23T08:33:29;20.73;;;8.82;;
69253;SDS011;56364;41.816;12.448;2023-03-23T08:35:57;16.63;;;7.47;;
69253;SDS011;56364;41.816;12.448;2023-03-23T08:38:40;20.77;;;8.65;;
69253;SDS011;56364;41.816;12.448;2023-03-23T08:43:38;11.82;;;5.13;;
69253;SDS011;56364;41.816;12.448;2023-03-23T08:46:05;15.05;;;5.65;;
69253;SDS011;56364;41.816;12.448;2023-03-23T09:04:09;16.02;;;7.32;;
69253;SDS011;56364;41.816;12.448;2023-03-23T09:06:36;21.38;;;8.02;;
69253;SDS011;56364;41.816;12.448;2023-03-23T09:09:03;17.42;;;9.30;;
69253;SDS011;56364;41.816;12.448;2023-03-23T09:11:33;14.88;;;7.65;;
69253;SDS011;56364;41.816;12.448;2023-03-23T09:13:59;19.33;;;9.43;;
69253;SDS011;56364;41.816;12.448;2023-03-23T09:16:26;23.42;;;9.07;;
69253;SDS011;56364;41.816;12.448;2023-03-23T09:18:53;21.50;;;8.77;;
69253;SDS011;56364;41.816;12.448;2023-03-23T09:21:20;17.70;;;7.80;;
69253;SDS011;56364;41.816;12.448;2023-03-23T09:23:47;16.48;;;8.15;;
69253;SDS011;56364;41.816;12.448;2023-03-23T09:28:50;11.55;;;5.90;;
69253;SDS011;56364;41.816;12.448;2023-03-23T09:31:22;15.35;;;6.88;;
69253;SDS011;56364;41.816;12.448;2023-03-23T09:33:54;13.30;;;5.18;;
69253;SDS011;56364;41.816;12.448;2023-03-23T09:36:24;11.13;;;5.00;;
69253;SDS011;56364;41.816;12.448;2023-03-23T09:38:51;14.10;;;5.07;;
69253;SDS011;56364;41.816;12.448;2023-03-23T09:43:53;11.73;;;4.00;;
69253;SDS011;56364;41.816;12.448;2023-03-23T09:46:35;10.70;;;4.68;;
69253;SDS011;56364;41.816;12.448;2023-03-23T09:49:11;11.05;;;5.13;;
69253;SDS011;56364;41.816;12.448;2023-03-23T09:54:11;11.13;;;4.60;;
69253;SDS011;56364;41.816;12.448;2023-03-23T09:56:38;10.70;;;5.40;;
69253;SDS011;56364;41.816;12.448;2023-03-23T10:01:53;13.32;;;5.95;;
69253;SDS011;56364;41.816;12.448;2023-03-23T10:04:30;8.63;;;4.40;;
69253;SDS011;56364;41.816;12.448;2023-03-23T10:07:08;10.35;;;4.95;;
69253;SDS011;56364;41.816;12.448;2023-03-23T10:09:35;5.03;;;2.75;;
69253;SDS011;56364;41.816;12.448;2023-03-23T10:12:09;7.20;;;3.55;;
69253;SDS011;56364;41.816;12.448;2023-03-23T10:14:47;9.20;;;3.95;;
69253;SDS011;56364;41.816;12.448;2023-03-23T10:17:26;15.77;;;4.85;;
69253;SDS011;56364;41.816;12.448;2023-03-23T10:20:23;10.43;;;4.82;;
69253;SDS011;56364;41.816;12.448;2023-03-23T10:22:56;10.43;;;4.93;;
69253;SDS011;56364;41.816;12.448;2023-03-23T10:25:41;9.60;;;5.10;;
69253;SDS011;56364;41.816;12.448;2023-03-23T10:28:20;9.35;;;4.18;;
69253;SDS011;56364;41.816;12.448;2023-03-23T10:30:53;9.07;;;4.38;;
69253;SDS011;56364;41.816;12.448;2023-03-23T10:35:53;11.57;;;4.57;;
69253;SDS011;56364;41.816;12.448;2023-03-23T10:38:27;14.23;;;4.28;;
69253;SDS011;56364;41.816;12.448;2023-03-23T10:41:04;8.05;;;2.83;;
69253;SDS011;56364;41.816;12.448;2023-03-23T10:43:31;9.77;;;4.22;;
69253;SDS011;56364;41.816;12.448;2023-03-23T10:46:02;9.77;;;4.22;;
69253;SDS011;56364;41.816;12.448;2023-03-23T11:04:10;8.48;;;3.75;;
69253;SDS011;56364;41.816;12.448;2023-03-23T11:06:44;9.25;;;4.35;;
69253;SDS011;56364;41.816;12.448;2023-03-23T11:09:15;7.03;;;3.45;;
69253;SDS011;56364;41.816;12.448;2023-03-23T11:11:50;8.65;;;3.83;;
69253;SDS011;56364;41.816;12.448;2023-03-23T11:14:30;8.30;;;3.72;;
69253;SDS011;56364;41.816;12.448;2023-03-23T11:17:02;5.68;;;2.90;;
69253;SDS011;56364;41.816;12.448;2023-03-23T11:19:29;7.88;;;3.63;;
69253;SDS011;56364;41.816;12.448;2023-03-23T11:22:07;9.88;;;3.75;;
69253;SDS011;56364;41.816;12.448;2023-03-23T11:27:35;4.88;;;2.70;;
69253;SDS011;56364;41.816;12.448;2023-03-23T11:58:55;2.25;;;1.30;;
69253;SDS011;56364;41.816;12.448;2023-03-23T12:01:47;2.22;;;1.15;;
69253;SDS011;56364;41.816;12.448;2023-03-23T12:09:49;4.10;;;1.33;;
69253;SDS011;56364;41.816;12.448;2023-03-23T12:15:12;3.08;;;1.30;;
69253;SDS011;56364;41.816;12.448;2023-03-23T12:18:01;1.75;;;1.20;;
69253;SDS011;56364;41.816;12.448;2023-03-23T12:20:47;2.10;;;1.33;;
69253;SDS011;56364;41.816;12.448;2023-03-23T12:29:23;2.55;;;1.35;;
69253;SDS011;56364;41.816;12.448;2023-03-23T12:34:48;2.83;;;1.50;;
69253;SDS011;56364;41.816;12.448;2023-03-23T12:42:43;6.57;;;1.48;;
69253;SDS011;56364;41.816;12.448;2023-03-23T12:48:05;1.63;;;1.20;;
69253;SDS011;56364;41.816;12.448;2023-03-23T12:50:31;3.17;;;1.70;;
69253;SDS011;56364;41.816;12.448;2023-03-23T12:53:35;3.22;;;1.40;;
69253;SDS011;56364;41.816;12.448;2023-03-23T12:56:06;5.45;;;1.60;;
69253;SDS011;56364;41.816;12.448;2023-03-23T12:58:50;7.40;;;1.85;;
69253;SDS011;56364;41.816;12.448;2023-03-23T13:01:19;2.90;;;1.52;;
69253;SDS011;56364;41.816;12.448;2023-03-23T13:04:01;2.95;;;1.35;;
69253;SDS011;56364;41.816;12.448;2023-03-23T13:06:42;3.58;;;1.70;;
69253;SDS011;56364;41.816;12.448;2023-03-23T13:09:30;1.60;;;1.00;;
69253;SDS011;56364;41.816;12.448;2023-03-23T13:12:01;1.98;;;1.20;;
69253;SDS011;56364;41.816;12.448;2023-03-23T13:17:26;3.47;;;1.40;;
69253;SDS011;56364;41.816;12.448;2023-03-23T13:22:35;2.53;;;1.00;;
69253;SDS011;56364;41.816;12.448;2023-03-23T13:25:05;2.65;;;1.02;;
69253;SDS011;56364;41.816;12.448;2023-03-23T13:27:33;2.22;;;1.60;;
69253;SDS011;56364;41.816;12.448;2023-03-23T13:30:00;1.88;;;1.30;;
69253;SDS011;56364;41.816;12.448;2023-03-23T13:34:55;5.50;;;1.48;;
69253;SDS011;56364;41.816;12.448;2023-03-23T13:37:23;3.10;;;1.02;;
69253;SDS011;56364;41.816;12.448;2023-03-23T13:42:51;4.25;;;1.33;;
69253;SDS011;56364;41.816;12.448;2023-03-23T13:45:42;2.40;;;1.20;;
69253;SDS011;56364;41.816;12.448;2023-03-23T13:50:49;2.25;;;1.10;;
69253;SDS011;56364;41.816;12.448;2023-03-23T13:53:23;3.47;;;1.40;;
69253;SDS011;56364;41.816;12.448;2023-03-23T13:59:05;4.22;;;1.13;;
69253;SDS011;56364;41.816;12.448;2023-03-23T14:01:37;3.85;;;1.40;;
69253;SDS011;56364;41.816;12.448;2023-03-23T14:04:10;3.65;;;1.30;;
69253;SDS011;56364;41.816;12.448;2023-03-23T14:06:36;2.35;;;0.80;;
69253;SDS011;56364;41.816;12.448;2023-03-23T14:09:04;3.28;;;1.50;;
69253;SDS011;56364;41.816;12.448;2023-03-23T14:11:30;4.10;;;1.05;;
69253;SDS011;56364;41.816;12.448;2023-03-23T14:16:32;3.17;;;1.33;;
69253;SDS011;56364;41.816;12.448;2023-03-23T14:19:24;3.92;;;1.10;;
69253;SDS011;56364;41.816;12.448;2023-03-23T14:21:57;4.25;;;1.05;;
69253;SDS011;56364;41.816;12.448;2023-03-23T14:24:25;1.98;;;1.17;;
69253;SDS011;56364;41.816;12.448;2023-03-23T14:32:41;2.72;;;1.40;;
69253;SDS011;56364;41.816;12.448;2023-03-23T14:37:41;2.10;;;1.40;;
69253;SDS011;56364;41.816;12.448;2023-03-23T14:40:11;3.42;;;1.27;;
69253;SDS011;56364;41.816;12.448;2023-03-23T14:42:39;3.05;;;1.40;;
69253;SDS011;56364;41.816;12.448;2023-03-23T14:45:06;2.00;;;1.17;;
69253;SDS011;56364;41.816;12.448;2023-03-23T14:47:34;3.72;;;1.67;;
69253;SDS011;56364;41.816;12.448;2023-03-23T14:50:02;3.22;;;1.35;;
69253;SDS011;56364;41.816;12.448;2023-03-23T14:52:32;1.67;;;1.20;;
69253;SDS011;56364;41.816;12.448;2023-03-23T14:55:16;2.42;;;1.38;;
69253;SDS011;56364;41.816;12.448;2023-03-23T14:57:44;2.30;;;1.05;;
69253;SDS011;56364;41.816;12.448;2023-03-23T15:00:14;5.03;;;1.45;;
69253;SDS011;56364;41.816;12.448;2023-03-23T15:07:45;2.10;;;1.20;;
69253;SDS011;56364;41.816;12.448;2023-03-23T15:10:14;9.35;;;1.35;;
69253;SDS011;56364;41.816;12.448;2023-03-23T15:12:42;6.30;;;1.25;;
69253;SDS011;56364;41.816;12.448;2023-03-23T15:15:31;2.22;;;1.20;;
69253;SDS011;56364;41.816;12.448;2023-03-23T15:17:58;1.27;;;0.70;;
69253;SDS011;56364;41.816;12.448;2023-03-23T15:23:14;1.80;;;1.00;;
69253;SDS011;56364;41.816;12.448;2023-03-23T15:25:47;2.58;;;1.08;;
69253;SDS011;56364;41.816;12.448;2023-03-23T15:30:50;2.53;;;1.00;;
69253;SDS011;56364;41.816;12.448;2023-03-23T15:33:16;2.45;;;1.30;;
69253;SDS011;56364;41.816;12.448;2023-03-23T15:35:48;4.05;;;1.17;;
69253;SDS011;56364;41.816;12.448;2023-03-23T15:40:50;3.60;;;1.15;;
69253;SDS011;56364;41.816;12.448;2023-03-23T15:43:20;5.20;;;1.15;;
69253;SDS011;56364;41.816;12.448;2023-03-23T15:48:18;2.60;;;0.93;;
69253;SDS011;56364;41.816;12.448;2023-03-23T15:50:45;7.32;;;1.17;;
69253;SDS011;56364;41.816;12.448;2023-03-23T15:53:29;4.38;;;1.27;;
69253;SDS011;56364;41.816;12.448;2023-03-23T15:55:58;2.28;;;1.38;;
69253;SDS011;56364;41.816;12.448;2023-03-23T15:58:24;1.58;;;1.08;;
69253;SDS011;56364;41.816;12.448;2023-03-23T16:00:50;7.22;;;1.27;;
69253;SDS011;56364;41.816;12.448;2023-03-23T16:03:22;2.95;;;1.02;;
69253;SDS011;56364;41.816;12.448;2023-03-23T16:05:49;3.28;;;1.35;;
69253;SDS011;56364;41.816;12.448;2023-03-23T16:08:15;4.97;;;1.33;;
69253;SDS011;56364;41.816;12.448;2023-03-23T16:10:41;1.98;;;1.20;;
69253;SDS011;56364;41.816;12.448;2023-03-23T16:13:08;4.18;;;1.77;;
69253;SDS011;56364;41.816;12.448;2023-03-23T16:15:34;3.80;;;1.35;;
69253;SDS011;56364;41.816;12.448;2023-03-23T16:18:00;3.80;;;1.17;;
69253;SDS011;56364;41.816;12.448;2023-03-23T16:20:27;8.80;;;1.40;;
69253;SDS011;56364;41.816;12.448;2023-03-23T16:22:53;2.30;;;1.20;;
69253;SDS011;56364;41.816;12.448;2023-03-23T16:25:48;3.22;;;1.90;;
69253;SDS011;56364;41.816;12.448;2023-03-23T16:28:16;2.47;;;1.15;;
69253;SDS011;56364;41.816;12.448;2023-03-23T16:30:44;3.65;;;0.85;;
69253;SDS011;56364;41.816;12.448;2023-03-23T16:33:10;1.00;;;0.88;;
69253;SDS011;56364;41.816;12.448;2023-03-23T16:35:36;1.17;;;1.02;;
69253;SDS011;56364;41.816;12.448;2023-03-23T16:38:03;2.38;;;1.30;;
69253;SDS011;56364;41.816;12.448;2023-03-23T16:40:29;5.90;;;1.40;;
69253;SDS011;56364;41.816;12.448;2023-03-23T16:42:55;8.35;;;1.40;;
69253;SDS011;56364;41.816;12.448;2023-03-23T16:45:21;4.65;;;1.25;;
69253;SDS011;56364;41.816;12.448;2023-03-23T16:47:48;4.65;;;1.33;;
69253;SDS011;56364;41.816;12.448;2023-03-23T16:50:15;3.35;;;1.30;;
69253;SDS011;56364;41.816;12.448;2023-03-23T16:52:42;2.72;;;1.70;;
69253;SDS011;56364;41.816;12.448;2023-03-23T16:55:09;6.55;;;1.30;;
69253;SDS011;56364;41.816;12.448;2023-03-23T16:57:36;5.53;;;1.50;;
69253;SDS011;56364;41.816;12.448;2023-03-23T17:00:04;5.97;;;1.83;;
69253;SDS011;56364;41.816;12.448;2023-03-23T17:02:31;11.60;;;1.83;;
69253;SDS011;56364;41.816;12.448;2023-03-23T17:04:57;4.30;;;1.52;;
69253;SDS011;56364;41.816;12.448;2023-03-23T17:07:23;2.08;;;1.38;;
69253;SDS011;56364;41.816;12.448;2023-03-23T17:09:50;4.85;;;1.95;;
69253;SDS011;56364;41.816;12.448;2023-03-23T17:12:16;8.48;;;1.80;;
69253;SDS011;56364;41.816;12.448;2023-03-23T17:17:08;5.05;;;1.67;;
69253;SDS011;56364;41.816;12.448;2023-03-23T17:19:34;4.93;;;1.40;;
69253;SDS011;56364;41.816;12.448;2023-03-23T17:24:26;5.40;;;1.83;;
69253;SDS011;56364;41.816;12.448;2023-03-23T17:29:21;4.60;;;1.85;;
69253;SDS011;56364;41.816;12.448;2023-03-23T17:34:32;2.75;;;1.38;;
69253;SDS011;56364;41.816;12.448;2023-03-23T17:36:59;5.15;;;1.80;;
69253;SDS011;56364;41.816;12.448;2023-03-23T17:42:00;5.63;;;1.42;;
69253;SDS011;56364;41.816;12.448;2023-03-23T17:44:28;5.80;;;1.60;;
69253;SDS011;56364;41.816;12.448;2023-03-23T17:46:56;3.58;;;1.63;;
69253;SDS011;56364;41.816;12.448;2023-03-23T17:49:25;5.10;;;1.40;;
69253;SDS011;56364;41.816;12.448;2023-03-23T17:51:58;3.75;;;1.80;;
69253;SDS011;56364;41.816;12.448;2023-03-23T17:54:26;5.95;;;2.00;;
69253;SDS011;56364;41.816;12.448;2023-03-23T18:07:25;6.55;;;2.38;;
69253;SDS011;56364;41.816;12.448;2023-03-23T18:09:51;2.72;;;1.20;;
69253;SDS011;56364;41.816;12.448;2023-03-23T18:12:18;3.92;;;1.67;;
69253;SDS011;56364;41.816;12.448;2023-03-23T18:17:10;3.03;;;1.83;;
69253;SDS011;56364;41.816;12.448;2023-03-23T18:19:36;4.32;;;1.88;;
69253;SDS011;56364;41.816;12.448;2023-03-23T18:22:02;5.57;;;2.22;;
69253;SDS011;56364;41.816;12.448;2023-03-23T18:24:28;5.20;;;1.63;;
69253;SDS011;56364;41.816;12.448;2023-03-23T18:26:54;5.72;;;2.28;;
69253;SDS011;56364;41.816;12.448;2023-03-23T18:29:21;9.93;;;1.77;;
69253;SDS011;56364;41.816;12.448;2023-03-23T18:34:15;4.93;;;1.73;;
69253;SDS011;56364;41.816;12.448;2023-03-23T18:36:44;8.82;;;2.22;;
69253;SDS011;56364;41.816;12.448;2023-03-23T18:41:39;3.90;;;1.80;;
69253;SDS011;56364;41.816;12.448;2023-03-23T18:46:32;5.03;;;2.00;;
69253;SDS011;56364;41.816;12.448;2023-03-23T18:48:58;6.32;;;1.85;;
69253;SDS011;56364;41.816;12.448;2023-03-23T18:51:24;10.20;;;1.75;;
69253;SDS011;56364;41.816;12.448;2023-03-23T18:53:50;11.10;;;1.92;;
69253;SDS011;56364;41.816;12.448;2023-03-23T18:56:16;5.53;;;1.88;;
69253;SDS011;56364;41.816;12.448;2023-03-23T18:58:45;6.97;;;2.10;;
69253;SDS011;56364;41.816;12.448;2023-03-23T19:01:16;5.93;;;1.60;;
69253;SDS011;56364;41.816;12.448;2023-03-23T19:03:42;3.50;;;1.55;;
69253;SDS011;56364;41.816;12.448;2023-03-23T19:06:16;5.63;;;2.10;;
69253;SDS011;56364;41.816;12.448;2023-03-23T19:08:49;5.03;;;2.03;;
69253;SDS011;56364;41.816;12.448;2023-03-23T19:11:16;7.88;;;2.65;;
69253;SDS011;56364;41.816;12.448;2023-03-23T19:13:42;4.10;;;1.70;;
69253;SDS011;56364;41.816;12.448;2023-03-23T19:16:08;5.65;;;2.22;;
69253;SDS011;56364;41.816;12.448;2023-03-23T19:18:35;6.95;;;2.30;;
69253;SDS011;56364;41.816;12.448;2023-03-23T19:21:01;5.45;;;2.47;;
69253;SDS011;56364;41.816;12.448;2023-03-23T19:23:27;12.05;;;2.30;;
69253;SDS011;56364;41.816;12.448;2023-03-23T19:25:54;7.20;;;2.45;;
69253;SDS011;56364;41.816;12.448;2023-03-23T19:28:20;7.38;;;2.85;;
69253;SDS011;56364;41.816;12.448;2023-03-23T19:30:52;11.23;;;2.70;;
69253;SDS011;56364;41.816;12.448;2023-03-23T19:33:37;7.18;;;3.13;;
69253;SDS011;56364;41.816;12.448;2023-03-23T19:36:04;14.13;;;2.67;;
69253;SDS011;56364;41.816;12.448;2023-03-23T19:38:30;3.55;;;2.13;;